createdAt,value
2022-08-17T00:01:52.031Z,15.67
2022-08-17T00:04:24.184Z,15.60
2022-08-17T00:06:54.188Z,15.62
2022-08-17T00:09:24.225Z,15.61
2022-08-17T00:12:34.686Z,15.62
2022-08-17T00:14:45.812Z,15.55
2022-08-17T00:17:15.955Z,15.54
2022-08-17T00:19:46.045Z,15.57
2022-08-17T00:22:35.150Z,15.59
2022-08-17T00:25:09.219Z,15.49
2022-08-17T00:27:40.767Z,15.48
2022-08-17T00:30:14.743Z,15.51
2022-08-17T00:33:12.681Z,15.53
2022-08-17T00:35:38.587Z,15.53
2022-08-17T00:38:10.231Z,15.49
2022-08-17T00:40:44.951Z,15.47
2022-08-17T00:43:23.863Z,15.37
2022-08-17T00:45:54.064Z,15.34
2022-08-17T00:48:30.456Z,15.32
2022-08-17T00:52:47.053Z,15.34
2022-08-17T00:55:17.662Z,15.30
2022-08-17T00:57:55.037Z,15.28
2022-08-17T01:00:29.028Z,15.29
2022-08-17T01:03:06.702Z,15.27
2022-08-17T01:05:42.237Z,15.19
2022-08-17T01:08:17.331Z,15.19
2022-08-17T01:10:59.456Z,15.17
2022-08-17T01:13:39.731Z,15.18
2022-08-17T01:16:20.175Z,15.17
2022-08-17T01:18:54.022Z,15.17
2022-08-17T01:21:34.357Z,15.12
2022-08-17T01:24:06.945Z,15.09
2022-08-17T01:26:38.305Z,15.01
2022-08-17T01:29:09.227Z,14.97
2022-08-17T01:31:43.483Z,14.96
2022-08-17T01:34:16.724Z,14.95
2022-08-17T01:36:50.159Z,14.93
2022-08-17T01:39:28.903Z,14.92
2022-08-17T01:42:08.884Z,14.87
2022-08-17T01:44:40.887Z,14.87
2022-08-17T01:47:11.153Z,14.87
2022-08-17T01:49:41.222Z,14.83
2022-08-17T01:52:13.706Z,14.77
2022-08-17T01:54:49.683Z,14.78
2022-08-17T01:57:20.042Z,14.78
2022-08-17T01:59:50.256Z,14.74
2022-08-17T02:02:30.989Z,14.68
2022-08-17T02:05:02.386Z,14.65
2022-08-17T02:07:32.388Z,14.68
2022-08-17T02:10:24.435Z,14.63
2022-08-17T02:13:05.664Z,14.64
2022-08-17T02:15:36.326Z,14.60
2022-08-17T02:18:08.217Z,14.61
2022-08-17T02:20:42.502Z,14.57
2022-08-17T02:23:14.457Z,14.55
2022-08-17T02:25:49.461Z,14.49
2022-08-17T02:28:20.522Z,14.36
2022-08-17T02:31:01.844Z,14.40
2022-08-17T02:33:41.709Z,14.44
2022-08-17T02:36:14.962Z,14.38
2022-08-17T02:38:45.022Z,14.39
2022-08-17T02:41:17.013Z,14.39
2022-08-17T02:43:47.149Z,14.36
2022-08-17T02:46:17.145Z,14.32
2022-08-17T02:48:47.142Z,14.25
2022-08-17T02:51:17.539Z,14.28
2022-08-17T02:53:48.286Z,14.26
2022-08-17T02:56:19.985Z,14.21
2022-08-17T02:58:50.141Z,14.16
2022-08-17T03:01:20.711Z,14.16
2022-08-17T03:03:50.706Z,14.16
2022-08-17T03:06:20.822Z,14.12
2022-08-17T03:08:50.973Z,14.14
2022-08-17T03:11:22.688Z,14.16
2022-08-17T03:13:52.786Z,14.12
2022-08-17T03:16:23.646Z,14.09
2022-08-17T03:18:55.162Z,14.02
2022-08-17T03:21:25.206Z,14.00
2022-08-17T03:23:55.489Z,13.97
2022-08-17T03:26:29.801Z,13.94
2022-08-17T03:28:59.962Z,13.95
2022-08-17T03:31:29.993Z,13.90
2022-08-17T03:34:01.445Z,13.82
2022-08-17T03:36:31.503Z,13.80
2022-08-17T03:39:06.902Z,13.74
2022-08-17T03:41:39.484Z,13.78
2022-08-17T03:44:09.462Z,13.70
2022-08-17T03:46:56.581Z,13.67
2022-08-17T03:49:43.401Z,13.74
2022-08-17T03:54:12.728Z,13.55
2022-08-17T03:56:46.026Z,13.49
2022-08-17T03:59:22.397Z,13.43
2022-08-17T04:01:55.637Z,13.52
2022-08-17T04:04:27.599Z,13.57
2022-08-17T04:06:59.147Z,13.62
2022-08-17T04:09:30.725Z,13.65
2022-08-17T04:12:01.298Z,13.79
2022-08-17T04:14:52.243Z,13.85
2022-08-17T04:17:27.374Z,13.78
2022-08-17T04:19:58.421Z,13.77
2022-08-17T04:22:32.205Z,13.88
2022-08-17T04:25:09.395Z,13.95
2022-08-17T04:27:39.595Z,14.02
2022-08-17T04:30:11.806Z,14.15
2022-08-17T04:33:06.230Z,14.35
2022-08-17T04:35:42.227Z,14.50
2022-08-17T04:38:15.703Z,14.65
2022-08-17T04:41:05.163Z,14.84
2022-08-17T04:43:37.450Z,15.04
2022-08-17T04:46:10.692Z,15.24
2022-08-17T04:48:43.406Z,15.44
2022-08-17T04:51:17.683Z,15.64
2022-08-17T04:53:54.354Z,15.85
2022-08-17T04:56:28.983Z,16.09
2022-08-17T04:59:03.343Z,16.30
2022-08-17T05:01:37.002Z,16.49
2022-08-17T05:04:32.796Z,16.66
2022-08-17T05:07:00.965Z,16.86
2022-08-17T05:09:31.383Z,17.03
2022-08-17T05:12:06.453Z,17.25
2022-08-17T05:14:36.607Z,17.45
2022-08-17T05:17:11.145Z,17.66
2022-08-17T05:19:42.106Z,17.87
2022-08-17T05:22:12.023Z,18.04
2022-08-17T05:24:53.341Z,18.24
2022-08-17T05:27:25.449Z,18.44
2022-08-17T05:30:02.963Z,18.66
2022-08-17T05:32:38.257Z,18.89
2022-08-17T05:35:11.414Z,19.10
2022-08-17T05:37:41.446Z,19.31
2022-08-17T05:40:12.845Z,19.56
2022-08-17T05:42:44.782Z,19.83
2022-08-17T05:45:16.113Z,20.05
2022-08-17T05:47:58.241Z,20.27
2022-08-17T05:50:36.053Z,20.53
2022-08-17T05:53:15.043Z,20.75
2022-08-17T05:56:00.403Z,21.00
2022-08-17T05:58:49.255Z,21.25
2022-08-17T06:01:32.444Z,21.45
2022-08-17T06:04:17.730Z,21.63
2022-08-17T06:06:57.127Z,21.90
2022-08-17T06:09:41.758Z,22.20
2022-08-17T06:12:36.286Z,22.45
2022-08-17T06:15:25.406Z,22.69
2022-08-17T06:17:59.543Z,22.93
2022-08-17T06:20:37.847Z,23.17
2022-08-17T06:23:13.066Z,23.35
2022-08-17T06:25:51.907Z,23.51
2022-08-17T06:28:32.447Z,23.79
2022-08-17T06:31:10.767Z,24.00
2022-08-17T06:33:46.723Z,24.20
2022-08-17T06:36:37.287Z,24.37
2022-08-17T06:39:29.160Z,24.54
2022-08-17T06:43:02.358Z,24.68
2022-08-17T06:45:14.083Z,24.73
2022-08-17T06:47:55.227Z,24.88
2022-08-17T06:53:46.769Z,25.27
2022-08-17T06:56:27.307Z,25.45
2022-08-17T06:59:23.634Z,25.58
2022-08-17T07:01:56.827Z,25.49
2022-08-17T07:04:33.082Z,25.56
2022-08-17T07:07:22.927Z,25.72
2022-08-17T07:09:58.287Z,25.86
2022-08-17T07:12:34.483Z,25.77
2022-08-17T07:15:15.226Z,25.70
2022-08-17T07:17:48.455Z,25.71
2022-08-17T07:20:23.002Z,25.93
2022-08-17T07:23:01.025Z,26.18
2022-08-17T07:25:33.466Z,26.32
2022-08-17T07:28:08.169Z,26.52
2022-08-17T07:30:47.147Z,26.69
2022-08-17T07:33:24.444Z,26.87
2022-08-17T07:35:55.108Z,26.96
2022-08-17T07:38:28.656Z,26.95
2022-08-17T07:41:11.131Z,27.05
2022-08-17T07:43:52.674Z,27.24
2022-08-17T07:46:42.215Z,27.32
2022-08-17T07:49:38.544Z,27.42
2022-08-17T07:52:48.574Z,27.48
2022-08-17T07:55:03.386Z,27.64
2022-08-17T07:57:37.707Z,27.72
2022-08-17T08:00:31.848Z,27.61
2022-08-17T08:03:19.347Z,27.70
2022-08-17T08:05:56.702Z,27.79
2022-08-17T08:08:40.065Z,27.89
2022-08-17T08:11:15.796Z,28.02
2022-08-17T08:13:50.351Z,28.13
2022-08-17T08:16:29.894Z,28.19
2022-08-17T08:19:02.541Z,28.16
2022-08-17T08:21:46.823Z,28.30
2022-08-17T08:24:41.638Z,28.31
2022-08-17T08:27:34.725Z,28.18
2022-08-17T08:30:12.128Z,27.83
2022-08-17T08:33:24.274Z,27.64
2022-08-17T08:36:03.066Z,27.83
2022-08-17T08:38:50.985Z,27.91
2022-08-17T08:41:45.285Z,27.92
2022-08-17T08:45:01.340Z,27.81
2022-08-17T08:47:43.047Z,27.65
2022-08-17T08:50:37.666Z,27.78
2022-08-17T08:53:31.368Z,28.10
2022-08-17T08:56:06.696Z,28.45
2022-08-17T08:58:51.231Z,28.64
2022-08-17T09:01:30.050Z,28.86
2022-08-17T09:04:25.990Z,28.97
2022-08-17T09:07:09.696Z,29.21
2022-08-17T09:09:59.155Z,29.36
2022-08-17T09:12:42.561Z,29.25
2022-08-17T09:15:20.346Z,29.11
2022-08-17T09:18:36.456Z,29.16
2022-08-17T09:20:59.906Z,29.42
2022-08-17T09:23:36.707Z,29.36
2022-08-17T09:26:22.437Z,29.01
2022-08-17T09:29:01.758Z,28.79
2022-08-17T09:31:46.451Z,28.44
2022-08-17T09:34:33.103Z,28.09
2022-08-17T09:37:22.083Z,27.94
2022-08-17T09:40:08.241Z,27.88
2022-08-17T09:42:48.961Z,27.97
2022-08-17T09:45:34.047Z,27.93
2022-08-17T09:48:10.427Z,27.86
2022-08-17T09:53:44.561Z,27.56
2022-08-17T09:56:34.983Z,27.46
2022-08-17T09:59:45.193Z,27.65
2022-08-17T10:02:58.317Z,28.04
2022-08-17T10:05:37.986Z,28.04
2022-08-17T10:08:21.842Z,27.86
2022-08-17T10:11:18.844Z,27.62
2022-08-17T10:13:59.700Z,27.52
2022-08-17T10:16:40.271Z,27.57
2022-08-17T10:19:20.425Z,27.53
2022-08-17T10:22:32.759Z,27.44
2022-08-17T10:25:30.188Z,27.40
2022-08-17T10:28:22.825Z,27.30
2022-08-17T10:34:07.619Z,27.22
2022-08-17T10:36:49.497Z,27.27
2022-08-17T10:39:28.014Z,27.27
2022-08-17T10:42:05.471Z,27.31
2022-08-17T10:44:52.606Z,27.27
2022-08-17T10:47:24.401Z,27.22
2022-08-17T10:49:56.383Z,27.17
2022-08-17T10:52:51.426Z,27.15
2022-08-17T10:55:22.726Z,27.33
2022-08-17T10:57:55.227Z,27.67
2022-08-17T11:01:04.355Z,28.07
2022-08-17T11:03:34.614Z,28.17
2022-08-17T11:06:19.323Z,28.07
2022-08-17T11:09:27.967Z,28.04
2022-08-17T11:12:26.047Z,27.90
2022-08-17T11:15:13.269Z,27.99
2022-08-17T11:18:23.826Z,28.41
2022-08-17T11:21:38.043Z,28.70
2022-08-17T11:24:24.545Z,28.50
2022-08-17T11:27:14.225Z,28.25
2022-08-17T11:30:00.837Z,28.00
2022-08-17T11:32:47.450Z,27.82
2022-08-17T11:35:41.011Z,27.58
2022-08-17T11:38:27.228Z,27.33
2022-08-17T11:41:16.710Z,27.00
2022-08-17T11:44:12.822Z,26.32
2022-08-17T11:47:18.444Z,25.22
2022-08-17T11:50:37.702Z,24.52
2022-08-17T11:53:10.165Z,24.12
2022-08-17T11:56:08.386Z,23.81
2022-08-17T11:58:42.608Z,23.61
2022-08-17T12:01:16.177Z,23.52
2022-08-17T12:03:55.963Z,23.57
2022-08-17T12:06:47.826Z,23.60
2022-08-17T12:09:25.294Z,23.58
2022-08-17T12:12:12.656Z,23.60
2022-08-17T12:15:10.102Z,23.75
2022-08-17T12:17:42.881Z,23.80
2022-08-17T12:20:21.926Z,24.26
2022-08-17T12:23:01.509Z,24.89
2022-08-17T12:25:42.585Z,25.36
2022-08-17T12:28:25.623Z,25.90
2022-08-17T12:30:56.566Z,26.42
2022-08-17T12:33:29.163Z,26.82
2022-08-17T12:36:04.544Z,27.17
2022-08-17T12:38:37.084Z,27.32
2022-08-17T12:41:29.905Z,27.55
2022-08-17T12:44:03.324Z,27.66
2022-08-17T12:46:38.320Z,28.06
2022-08-17T12:49:24.314Z,28.27
2022-08-17T12:53:42.870Z,28.69
2022-08-17T12:56:16.205Z,28.77
2022-08-17T12:58:53.821Z,28.80
2022-08-17T13:01:25.415Z,28.84
2022-08-17T13:04:01.370Z,28.65
2022-08-17T13:06:35.413Z,28.25
2022-08-17T13:09:16.744Z,27.85
2022-08-17T13:11:52.041Z,27.51
2022-08-17T13:14:22.645Z,27.36
2022-08-17T13:16:58.581Z,27.29
2022-08-17T13:19:40.424Z,27.10
2022-08-17T13:22:15.204Z,26.88
2022-08-17T13:24:56.726Z,26.73
2022-08-17T13:27:29.756Z,26.62
2022-08-17T13:30:02.507Z,26.72
2022-08-17T13:32:43.884Z,26.43
2022-08-17T13:35:50.089Z,26.14
2022-08-17T13:38:41.446Z,25.93
2022-08-17T13:41:35.004Z,25.84
2022-08-17T13:44:15.372Z,25.73
2022-08-17T13:46:57.163Z,25.67
2022-08-17T13:49:41.968Z,25.47
2022-08-17T13:52:39.786Z,25.29
2022-08-17T13:55:19.883Z,25.28
2022-08-17T13:58:03.967Z,25.26
2022-08-17T14:00:39.686Z,25.33
2022-08-17T14:03:09.723Z,25.48
2022-08-17T14:05:42.162Z,25.62
2022-08-17T14:08:15.062Z,25.72
2022-08-17T14:10:45.403Z,25.79
2022-08-17T14:13:16.992Z,25.79
2022-08-17T14:15:54.562Z,25.75
2022-08-17T14:18:35.627Z,25.74
2022-08-17T14:21:17.787Z,25.73
2022-08-17T14:23:49.016Z,25.76
2022-08-17T14:26:25.037Z,25.81
2022-08-17T14:28:57.119Z,25.85
2022-08-17T14:31:28.381Z,25.87
2022-08-17T14:33:59.383Z,25.86
2022-08-17T14:36:29.522Z,25.81
2022-08-17T14:38:59.744Z,25.75
2022-08-17T14:41:29.725Z,25.73
2022-08-17T14:44:01.434Z,25.70
2022-08-17T14:46:31.627Z,25.45
2022-08-17T14:49:03.204Z,25.26
2022-08-17T14:51:33.283Z,25.07
2022-08-17T14:54:03.411Z,24.92
2022-08-17T14:56:37.873Z,24.73
2022-08-17T14:59:09.927Z,24.77
2022-08-17T15:01:40.197Z,24.73
2022-08-17T15:04:18.628Z,24.64
2022-08-17T15:06:49.386Z,24.60
2022-08-17T15:09:19.962Z,24.53
2022-08-17T15:11:50.110Z,24.62
2022-08-17T15:14:23.026Z,24.76
2022-08-17T15:16:53.093Z,24.97
2022-08-17T15:19:23.243Z,25.12
2022-08-17T15:21:53.322Z,25.20
2022-08-17T15:24:23.526Z,25.26
2022-08-17T15:26:53.423Z,25.30
2022-08-17T15:29:25.207Z,25.33
2022-08-17T15:32:00.039Z,25.37
2022-08-17T15:34:30.754Z,25.42
2022-08-17T15:37:00.845Z,25.40
2022-08-17T15:39:31.120Z,25.41
2022-08-17T15:42:05.726Z,25.41
2022-08-17T15:44:43.714Z,25.40
2022-08-17T15:47:17.373Z,25.48
2022-08-17T15:49:48.621Z,25.56
2022-08-17T15:53:41.084Z,25.72
2022-08-17T15:56:15.703Z,25.69
2022-08-17T15:58:48.323Z,25.61
2022-08-17T16:02:16.308Z,25.57
2022-08-17T16:04:29.969Z,25.55
2022-08-17T16:07:02.014Z,25.56
2022-08-17T16:09:33.624Z,25.52
2022-08-17T16:12:13.324Z,25.48
2022-08-17T16:14:43.366Z,25.44
2022-08-17T16:17:38.579Z,25.30
2022-08-17T16:20:03.712Z,25.23
2022-08-17T16:22:37.986Z,25.15
2022-08-17T16:25:15.423Z,25.10
2022-08-17T16:27:46.332Z,25.01
2022-08-17T16:30:18.100Z,24.87
2022-08-17T16:32:51.945Z,24.72
2022-08-17T16:35:25.606Z,24.55
2022-08-17T16:37:57.526Z,24.40
2022-08-17T16:40:35.798Z,24.22
2022-08-17T16:43:12.346Z,24.10
2022-08-17T16:45:42.843Z,23.91
2022-08-17T16:48:12.882Z,23.77
2022-08-17T16:50:43.747Z,23.60
2022-08-17T16:53:34.267Z,23.46
2022-08-17T16:56:07.827Z,23.35
2022-08-17T16:58:41.268Z,23.20
2022-08-17T17:01:12.055Z,23.09
2022-08-17T17:03:46.592Z,22.93
2022-08-17T17:06:26.666Z,22.77
2022-08-17T17:09:02.886Z,22.64
2022-08-17T17:11:40.107Z,22.53
2022-08-17T17:14:16.606Z,22.37
2022-08-17T17:16:58.169Z,22.23
2022-08-17T17:19:36.402Z,22.05
2022-08-17T17:22:16.980Z,21.87
2022-08-17T17:25:00.603Z,21.77
2022-08-17T17:27:44.421Z,21.60
2022-08-17T17:30:31.985Z,21.45
2022-08-17T17:33:07.211Z,21.28
2022-08-17T17:35:50.147Z,21.13
2022-08-17T17:38:28.956Z,21.03
2022-08-17T17:41:06.104Z,20.93
2022-08-17T17:43:40.182Z,20.77
2022-08-17T17:46:27.742Z,20.61
2022-08-17T17:48:59.882Z,20.45
2022-08-17T17:52:06.590Z,20.35
2022-08-17T17:54:58.982Z,20.26
2022-08-17T17:57:47.182Z,20.10
2022-08-17T18:00:27.364Z,19.95
2022-08-17T18:03:15.515Z,19.75
2022-08-17T18:06:10.430Z,19.55
2022-08-17T18:08:58.535Z,19.46
2022-08-17T18:11:53.443Z,19.27
2022-08-17T18:14:48.268Z,19.23
2022-08-17T18:17:20.709Z,19.12
2022-08-17T18:19:50.931Z,18.96
2022-08-17T18:22:23.668Z,18.92
2022-08-17T18:24:57.708Z,18.87
2022-08-17T18:27:35.499Z,18.84
2022-08-17T18:30:29.267Z,18.63
2022-08-17T18:33:23.585Z,18.54
2022-08-17T18:35:58.710Z,18.47
2022-08-17T18:38:34.571Z,18.45
2022-08-17T18:41:19.271Z,18.55
2022-08-17T18:44:04.521Z,18.49
2022-08-17T18:46:37.969Z,18.42
2022-08-17T18:49:28.303Z,18.35
2022-08-17T18:53:42.542Z,18.40
2022-08-17T18:56:31.259Z,18.33
2022-08-17T18:59:34.002Z,18.31
2022-08-17T19:02:44.268Z,18.23
2022-08-17T19:05:29.532Z,18.14
2022-08-17T19:08:23.788Z,18.11
2022-08-17T19:10:59.646Z,18.10
2022-08-17T19:13:36.644Z,18.07
2022-08-17T19:16:14.764Z,18.00
2022-08-17T19:18:51.245Z,17.99
2022-08-17T19:21:25.964Z,17.89
2022-08-17T19:24:02.633Z,17.87
2022-08-17T19:26:51.068Z,17.87
2022-08-17T19:29:34.323Z,17.82
2022-08-17T19:32:05.383Z,17.78
2022-08-17T19:34:39.209Z,17.69
2022-08-17T19:37:18.710Z,17.63
2022-08-17T19:40:00.632Z,17.57
2022-08-17T19:42:47.954Z,17.52
2022-08-17T19:45:36.575Z,17.50
2022-08-17T19:48:20.762Z,17.39
2022-08-17T19:50:58.611Z,17.33
2022-08-17T19:54:03.812Z,17.29
2022-08-17T19:56:40.324Z,17.32
2022-08-17T19:59:21.628Z,17.25
2022-08-17T20:01:58.595Z,17.22
2022-08-17T20:04:40.828Z,17.10
2022-08-17T20:07:25.783Z,17.02
2022-08-17T20:10:05.854Z,17.06
2022-08-17T20:12:40.437Z,16.99
2022-08-17T20:15:16.613Z,16.93
2022-08-17T20:17:49.255Z,16.85
2022-08-17T20:20:30.988Z,16.88
2022-08-17T20:23:08.908Z,16.90
2022-08-17T20:25:48.561Z,16.72
2022-08-17T20:28:26.331Z,16.73
2022-08-17T20:30:58.407Z,16.75
2022-08-17T20:33:34.205Z,16.70
2022-08-17T20:36:18.699Z,16.56
2022-08-17T20:38:54.818Z,16.58
2022-08-17T20:41:27.796Z,16.55
2022-08-17T20:44:08.445Z,16.53
2022-08-17T20:47:11.973Z,16.60
2022-08-17T20:49:54.558Z,16.52
2022-08-17T20:52:52.842Z,16.46
2022-08-17T20:55:56.186Z,16.47
2022-08-17T20:58:59.341Z,16.60
2022-08-17T21:01:40.723Z,16.47
2022-08-17T21:05:00.642Z,16.39
2022-08-17T21:07:46.606Z,16.53
2022-08-17T21:10:19.816Z,16.59
2022-08-17T21:12:57.543Z,16.56
2022-08-17T21:15:41.465Z,16.52
2022-08-17T21:18:20.042Z,16.55
2022-08-17T21:21:17.446Z,16.62
2022-08-17T21:24:17.435Z,16.70
2022-08-17T21:26:59.072Z,16.71
2022-08-17T21:29:34.063Z,16.77
2022-08-17T21:32:24.179Z,16.82
2022-08-17T21:35:31.405Z,16.87
2022-08-17T21:38:19.789Z,16.91
2022-08-17T21:40:53.506Z,16.96
2022-08-17T21:43:29.703Z,16.97
2022-08-17T21:46:08.192Z,16.93
2022-08-17T21:48:49.895Z,16.94
2022-08-17T21:53:48.326Z,17.00
2022-08-17T21:56:27.734Z,16.96
2022-08-17T21:59:02.109Z,16.96
2022-08-17T22:01:35.990Z,16.94
2022-08-17T22:04:28.027Z,16.99
2022-08-17T22:06:59.061Z,17.00
2022-08-17T22:09:34.362Z,16.88
2022-08-17T22:12:11.698Z,16.87
2022-08-17T22:14:52.506Z,16.80
2022-08-17T22:17:27.568Z,16.79
2022-08-17T22:20:01.086Z,16.79
2022-08-17T22:22:57.064Z,16.73
2022-08-17T22:25:31.512Z,16.73
2022-08-17T22:28:04.486Z,16.70
2022-08-17T22:30:38.407Z,16.67
2022-08-17T22:33:39.973Z,16.68
2022-08-17T22:36:32.978Z,16.60
2022-08-17T22:39:26.469Z,16.59
2022-08-17T22:42:01.358Z,16.42
2022-08-17T22:44:35.968Z,16.42
2022-08-17T22:47:23.223Z,16.38
2022-08-17T22:49:56.804Z,16.41
2022-08-17T22:52:35.463Z,16.47
2022-08-17T22:55:31.423Z,16.38
2022-08-17T22:58:21.243Z,16.36
2022-08-17T23:00:52.429Z,16.25
2022-08-17T23:03:25.050Z,16.15
2022-08-17T23:06:08.350Z,16.16
2022-08-17T23:08:50.196Z,16.00
2022-08-17T23:11:20.345Z,16.02
2022-08-17T23:14:08.668Z,16.00
2022-08-17T23:16:42.724Z,16.00
2022-08-17T23:19:13.911Z,16.09
2022-08-17T23:21:45.427Z,16.16
2022-08-17T23:24:22.026Z,16.10
2022-08-17T23:26:52.075Z,16.11
2022-08-17T23:29:24.208Z,16.16
2022-08-17T23:31:58.087Z,16.14
2022-08-17T23:34:28.553Z,16.11
2022-08-17T23:36:58.789Z,16.15
2022-08-17T23:39:28.998Z,16.11
2022-08-17T23:42:00.208Z,16.14
2022-08-17T23:44:32.980Z,16.06
2022-08-17T23:47:03.992Z,15.95
2022-08-17T23:49:34.488Z,15.92
2022-08-17T23:52:10.266Z,15.96
2022-08-17T23:54:44.672Z,16.01
2022-08-17T23:57:17.746Z,15.99
2022-08-17T23:59:49.408Z,15.89
